createdAt,value
2022-12-29T00:01:02.888Z,3.25
2022-12-29T00:03:30.240Z,5.97
2022-12-29T00:05:58.601Z,4.30
2022-12-29T00:08:40.594Z,5.22
2022-12-29T00:11:18.788Z,4.70
2022-12-29T00:14:04.539Z,3.80
2022-12-29T00:16:33.618Z,3.65
2022-12-29T00:19:03.850Z,4.15
2022-12-29T00:21:49.836Z,5.35
2022-12-29T00:24:28.180Z,4.30
2022-12-29T00:27:22.350Z,3.90
2022-12-29T00:30:10.908Z,3.63
2022-12-29T00:32:56.796Z,3.33
2022-12-29T00:35:30.743Z,3.10
2022-12-29T00:38:21.856Z,4.28
2022-12-29T00:41:07.552Z,2.42
2022-12-29T00:43:53.429Z,3.08
2022-12-29T00:46:20.532Z,2.33
2022-12-29T00:49:06.398Z,1.73
2022-12-29T00:51:33.935Z,4.20
2022-12-29T00:54:01.229Z,3.08
2022-12-29T00:56:28.611Z,3.60
2022-12-29T00:58:55.876Z,3.95
2022-12-29T01:01:23.285Z,3.75
2022-12-29T01:03:50.757Z,2.92
2022-12-29T01:06:18.007Z,3.03
2022-12-29T01:08:45.716Z,3.42
2022-12-29T01:11:14.330Z,3.50
2022-12-29T01:13:43.625Z,3.42
2022-12-29T01:16:10.960Z,3.65
2022-12-29T01:18:38.350Z,4.15
2022-12-29T01:21:07.656Z,3.67
2022-12-29T01:23:35.098Z,1.63
2022-12-29T01:26:16.851Z,3.88
2022-12-29T01:28:44.829Z,1.23
2022-12-29T01:31:15.031Z,3.38
2022-12-29T01:33:44.341Z,3.70
2022-12-29T01:36:17.262Z,1.98
2022-12-29T01:38:45.254Z,3.33
2022-12-29T01:41:15.838Z,4.20
2022-12-29T01:43:57.804Z,3.10
2022-12-29T01:46:32.614Z,2.25
2022-12-29T01:49:15.993Z,3.45
2022-12-29T01:51:59.579Z,3.75
2022-12-29T01:55:25.467Z,4.78
2022-12-29T01:57:56.868Z,6.40
2022-12-29T02:00:24.212Z,2.55
2022-12-29T02:02:54.997Z,5.82
2022-12-29T02:05:36.971Z,6.47
2022-12-29T02:08:04.250Z,4.10
2022-12-29T02:10:34.100Z,4.18
2022-12-29T02:13:01.209Z,4.43
2022-12-29T02:16:07.142Z,5.18
2022-12-29T02:18:53.104Z,4.72
2022-12-29T02:22:13.691Z,3.60
2022-12-29T02:24:49.472Z,5.95
2022-12-29T02:28:09.349Z,4.97
2022-12-29T02:31:01.735Z,4.53
2022-12-29T02:33:53.225Z,4.45
2022-12-29T02:37:11.991Z,2.90
2022-12-29T02:40:00.221Z,0.00
2022-12-29T02:43:01.257Z,0.00
2022-12-29T02:46:05.049Z,0.00
2022-12-29T02:48:57.191Z,0.03
2022-12-29T02:51:45.404Z,1.00
2022-12-29T02:54:31.157Z,0.30
2022-12-29T02:56:58.110Z,0.20
2022-12-29T02:59:25.230Z,0.20
2022-12-29T03:02:19.865Z,0.30
2022-12-29T03:05:22.443Z,0.10
2022-12-29T03:08:23.003Z,0.10
2022-12-29T03:11:02.172Z,0.20
2022-12-29T03:14:05.153Z,0.40
2022-12-29T03:16:53.613Z,3.58
2022-12-29T03:19:37.736Z,1.95
2022-12-29T03:22:30.929Z,3.67
2022-12-29T03:25:25.172Z,0.08
2022-12-29T03:27:57.403Z,0.20
2022-12-29T03:30:25.492Z,0.10
2022-12-29T03:32:58.024Z,0.13
2022-12-29T03:35:28.845Z,0.10
2022-12-29T03:38:25.041Z,0.60
2022-12-29T03:40:57.926Z,2.75
2022-12-29T03:43:25.823Z,3.53
2022-12-29T03:45:52.794Z,0.60
2022-12-29T03:48:19.770Z,5.35
2022-12-29T03:50:46.760Z,4.43
2022-12-29T03:53:13.861Z,4.93
2022-12-29T03:55:40.795Z,5.35
2022-12-29T03:58:07.760Z,3.50
2022-12-29T04:00:34.737Z,4.30
2022-12-29T04:03:01.899Z,3.50
2022-12-29T04:05:28.954Z,4.53
2022-12-29T04:07:55.992Z,4.03
2022-12-29T04:10:22.941Z,4.50
2022-12-29T04:12:49.920Z,2.75
2022-12-29T04:15:16.960Z,2.47
2022-12-29T04:17:45.388Z,2.90
2022-12-29T04:20:30.987Z,4.68
2022-12-29T04:23:05.884Z,5.20
2022-12-29T04:25:33.959Z,4.75
2022-12-29T04:28:01.713Z,6.07
2022-12-29T04:30:28.870Z,3.15
2022-12-29T04:32:55.868Z,2.63
2022-12-29T04:35:22.786Z,5.55
2022-12-29T04:37:49.720Z,3.25
2022-12-29T04:40:16.784Z,4.35
2022-12-29T04:42:43.681Z,3.60
2022-12-29T04:45:11.427Z,3.88
2022-12-29T04:47:38.563Z,4.00
2022-12-29T04:50:06.510Z,4.50
2022-12-29T04:52:33.686Z,3.22
2022-12-29T04:55:01.681Z,2.85
2022-12-29T04:57:28.701Z,2.40
2022-12-29T04:59:55.708Z,3.03
2022-12-29T05:02:22.860Z,3.90
2022-12-29T05:04:50.019Z,4.50
2022-12-29T05:07:16.987Z,4.85
2022-12-29T05:09:45.299Z,4.03
2022-12-29T05:12:12.255Z,4.40
2022-12-29T05:14:39.268Z,2.92
2022-12-29T05:17:06.210Z,2.88
2022-12-29T05:19:33.220Z,4.43
2022-12-29T05:22:00.496Z,4.85
2022-12-29T05:24:27.531Z,6.00
2022-12-29T05:26:54.444Z,4.45
2022-12-29T05:29:21.520Z,4.95
2022-12-29T05:31:48.562Z,4.38
2022-12-29T05:34:15.797Z,3.67
2022-12-29T05:36:42.774Z,3.05
2022-12-29T05:39:09.776Z,3.53
2022-12-29T05:41:36.727Z,5.93
2022-12-29T05:44:04.084Z,14.57
2022-12-29T05:46:31.476Z,4.18
2022-12-29T05:48:58.477Z,4.65
2022-12-29T05:51:25.447Z,4.10
2022-12-29T05:53:52.493Z,6.00
2022-12-29T05:56:19.537Z,4.90
2022-12-29T05:58:46.552Z,5.72
2022-12-29T06:01:13.694Z,5.53
2022-12-29T06:03:47.740Z,5.97
2022-12-29T06:06:15.065Z,6.75
2022-12-29T06:08:42.013Z,4.95
2022-12-29T06:11:09.209Z,12.43
2022-12-29T06:13:36.586Z,9.13
2022-12-29T06:16:03.836Z,9.63
2022-12-29T06:18:30.808Z,4.90
2022-12-29T06:21:03.033Z,6.63
2022-12-29T06:23:30.543Z,6.80
2022-12-29T06:25:58.480Z,6.32
2022-12-29T06:28:26.079Z,7.35
2022-12-29T06:30:53.093Z,6.55
2022-12-29T06:33:20.217Z,6.45
2022-12-29T06:35:47.516Z,2.97
2022-12-29T06:38:15.910Z,7.32
2022-12-29T06:40:46.237Z,4.57
2022-12-29T06:43:13.391Z,10.45
2022-12-29T06:45:41.341Z,6.53
2022-12-29T06:48:08.880Z,8.93
2022-12-29T06:50:36.013Z,6.57
2022-12-29T06:53:03.076Z,7.45
2022-12-29T06:55:30.229Z,8.60
2022-12-29T06:57:59.329Z,9.93
2022-12-29T07:00:26.735Z,5.05
2022-12-29T07:02:56.138Z,6.07
2022-12-29T07:05:23.262Z,5.50
2022-12-29T07:07:50.213Z,3.00
2022-12-29T07:10:17.279Z,4.82
2022-12-29T07:12:44.246Z,5.28
2022-12-29T07:15:11.591Z,5.28
2022-12-29T07:17:38.659Z,7.53
2022-12-29T07:20:07.191Z,6.10
2022-12-29T07:22:34.478Z,8.15
2022-12-29T07:25:01.585Z,4.45
2022-12-29T07:27:28.545Z,3.30
2022-12-29T07:29:55.742Z,6.63
2022-12-29T07:32:22.718Z,7.22
2022-12-29T07:34:49.660Z,5.05
2022-12-29T07:37:16.767Z,5.75
2022-12-29T07:39:44.728Z,2.60
2022-12-29T07:42:11.720Z,6.10
2022-12-29T07:44:38.768Z,6.57
2022-12-29T07:47:05.822Z,3.85
2022-12-29T07:49:32.873Z,4.60
2022-12-29T07:51:59.825Z,5.70
2022-12-29T07:54:26.866Z,3.83
2022-12-29T07:56:53.972Z,5.78
2022-12-29T07:59:21.119Z,5.03
2022-12-29T08:01:49.151Z,5.40
2022-12-29T08:04:16.345Z,4.93
2022-12-29T08:06:43.450Z,5.18
2022-12-29T08:09:15.068Z,8.82
2022-12-29T08:11:45.792Z,4.90
2022-12-29T08:14:12.795Z,4.60
2022-12-29T08:16:39.760Z,5.45
2022-12-29T08:19:06.854Z,4.53
2022-12-29T08:21:33.855Z,16.08
2022-12-29T08:24:01.089Z,5.32
2022-12-29T08:26:29.178Z,80.93
2022-12-29T08:28:56.840Z,26.35
2022-12-29T08:31:25.463Z,38.25
2022-12-29T08:33:52.686Z,45.42
2022-12-29T08:36:19.738Z,44.28
2022-12-29T08:38:46.767Z,36.90
2022-12-29T08:41:13.815Z,40.17
2022-12-29T08:43:46.884Z,36.10
2022-12-29T08:46:17.993Z,31.73
2022-12-29T08:48:45.451Z,49.40
2022-12-29T08:51:12.928Z,36.28
2022-12-29T08:53:40.014Z,21.80
2022-12-29T08:56:07.815Z,12.50
2022-12-29T08:58:34.810Z,9.52
2022-12-29T09:01:01.736Z,19.85
2022-12-29T09:04:04.503Z,8.73
2022-12-29T09:06:18.257Z,11.10
2022-12-29T09:08:54.690Z,11.93
2022-12-29T09:11:25.182Z,4.80
2022-12-29T09:13:53.545Z,6.72
2022-12-29T09:16:31.383Z,4.20
2022-12-29T09:18:59.355Z,6.32
2022-12-29T09:21:26.621Z,2.35
2022-12-29T09:23:53.947Z,2.95
2022-12-29T09:26:21.240Z,3.90
2022-12-29T09:31:30.667Z,8.13
2022-12-29T09:34:08.257Z,5.65
2022-12-29T09:36:37.015Z,5.03
2022-12-29T09:39:04.108Z,5.15
2022-12-29T09:41:57.275Z,4.50
2022-12-29T09:44:50.512Z,2.97
2022-12-29T09:47:20.255Z,2.88
2022-12-29T09:50:02.890Z,6.60
2022-12-29T09:52:48.779Z,3.17
2022-12-29T09:55:21.692Z,4.93
2022-12-29T09:58:07.123Z,15.48
2022-12-29T10:01:03.247Z,4.95
2022-12-29T10:03:48.460Z,6.72
2022-12-29T10:06:25.227Z,5.28
2022-12-29T10:09:10.386Z,5.70
2022-12-29T10:12:03.055Z,5.07
2022-12-29T10:15:09.728Z,3.50
2022-12-29T10:18:21.563Z,3.80
2022-12-29T10:21:36.922Z,1.95
2022-12-29T10:24:09.153Z,4.65
2022-12-29T10:26:47.049Z,2.83
2022-12-29T10:29:16.963Z,2.97
2022-12-29T10:32:07.901Z,3.85
2022-12-29T10:34:43.101Z,2.17
2022-12-29T10:37:27.530Z,4.13
2022-12-29T10:40:00.944Z,4.40
2022-12-29T10:42:53.362Z,2.67
2022-12-29T10:45:23.235Z,4.13
2022-12-29T10:48:05.463Z,5.32
2022-12-29T10:50:32.971Z,5.13
2022-12-29T10:53:06.073Z,4.50
2022-12-29T10:55:39.476Z,6.72
2022-12-29T10:58:12.611Z,14.40
2022-12-29T11:00:40.902Z,8.45
2022-12-29T11:04:01.052Z,4.00
2022-12-29T11:06:35.514Z,5.07
2022-12-29T11:09:32.460Z,5.40
2022-12-29T11:12:28.412Z,8.18
2022-12-29T11:15:15.927Z,4.85
2022-12-29T11:17:48.853Z,30.15
2022-12-29T11:20:39.691Z,17.80
2022-12-29T11:23:32.372Z,11.02
2022-12-29T11:26:18.844Z,21.13
2022-12-29T11:29:05.176Z,12.18
2022-12-29T11:31:32.295Z,18.67
2022-12-29T11:33:59.276Z,16.52
2022-12-29T11:36:26.408Z,26.02
2022-12-29T11:38:56.529Z,18.85
2022-12-29T11:41:31.465Z,10.25
2022-12-29T11:44:03.971Z,8.85
2022-12-29T11:46:36.187Z,5.13
2022-12-29T11:49:05.236Z,6.65
2022-12-29T11:51:47.676Z,26.45
2022-12-29T11:54:27.404Z,9.20
2022-12-29T11:56:56.093Z,28.50
2022-12-29T11:59:59.700Z,6.88
2022-12-29T12:03:04.024Z,18.55
2022-12-29T12:05:55.010Z,43.35
2022-12-29T12:08:54.393Z,71.32
2022-12-29T12:11:34.310Z,53.05
2022-12-29T12:14:34.836Z,44.00
2022-12-29T12:17:16.190Z,50.33
2022-12-29T12:20:14.005Z,33.67
2022-12-29T12:22:50.573Z,61.95
2022-12-29T12:25:27.214Z,56.72
2022-12-29T12:28:42.005Z,74.80
2022-12-29T12:31:46.702Z,60.33
2022-12-29T12:34:27.609Z,48.30
2022-12-29T12:37:29.887Z,57.75
2022-12-29T12:40:37.944Z,55.00
2022-12-29T12:43:14.570Z,48.47
2022-12-29T12:46:16.518Z,43.63
2022-12-29T12:49:08.509Z,39.20
2022-12-29T12:52:02.903Z,20.17
2022-12-29T12:55:19.997Z,17.73
2022-12-29T12:58:20.146Z,8.98
2022-12-29T13:00:50.621Z,7.88
2022-12-29T13:03:46.080Z,7.40
2022-12-29T13:06:32.396Z,13.93
2022-12-29T13:09:46.722Z,7.60
2022-12-29T13:12:44.601Z,10.38
2022-12-29T13:15:52.306Z,8.55
2022-12-29T13:19:14.789Z,8.13
2022-12-29T13:22:05.985Z,7.40
2022-12-29T13:24:57.607Z,7.85
2022-12-29T13:28:14.375Z,14.48
2022-12-29T13:31:07.274Z,7.20
2022-12-29T13:34:01.345Z,7.50
2022-12-29T13:36:46.674Z,7.13
2022-12-29T13:39:31.915Z,6.85
2022-12-29T13:42:00.272Z,8.95
2022-12-29T13:44:36.928Z,10.80
2022-12-29T13:48:11.816Z,10.57
2022-12-29T13:50:43.870Z,11.48
2022-12-29T13:53:18.055Z,11.55
2022-12-29T13:56:10.300Z,8.05
2022-12-29T13:59:15.057Z,6.53
2022-12-29T14:02:05.109Z,8.85
2022-12-29T14:04:37.280Z,8.43
2022-12-29T14:07:17.107Z,9.52
2022-12-29T14:12:45.700Z,9.63
2022-12-29T14:15:13.030Z,7.68
2022-12-29T14:17:44.233Z,13.05
2022-12-29T14:20:39.131Z,11.45
2022-12-29T14:23:12.917Z,8.30
2022-12-29T14:26:34.918Z,6.90
2022-12-29T14:29:32.031Z,12.02
2022-12-29T14:32:00.025Z,10.15
2022-12-29T14:34:32.929Z,2.58
2022-12-29T14:39:45.854Z,11.57
2022-12-29T14:42:18.533Z,4.10
2022-12-29T14:45:00.660Z,7.43
2022-12-29T14:47:42.306Z,6.43
2022-12-29T14:50:16.467Z,6.55
2022-12-29T14:53:05.202Z,4.25
2022-12-29T14:55:58.314Z,6.28
2022-12-29T14:58:55.656Z,5.18
2022-12-29T15:01:44.829Z,5.55
2022-12-29T15:04:36.734Z,4.50
2022-12-29T15:07:10.375Z,5.35
2022-12-29T15:09:50.384Z,4.97
2022-12-29T15:12:41.946Z,6.95
2022-12-29T15:15:27.714Z,6.75
2022-12-29T15:17:56.495Z,6.95
2022-12-29T15:20:31.195Z,4.03
2022-12-29T15:23:04.438Z,3.85
2022-12-29T15:25:32.573Z,3.97
2022-12-29T15:28:06.468Z,9.02
2022-12-29T15:30:33.794Z,3.45
2022-12-29T15:33:01.006Z,5.90
2022-12-29T15:35:39.739Z,5.45
2022-12-29T15:38:30.365Z,4.97
2022-12-29T15:41:08.854Z,4.38
2022-12-29T15:43:59.172Z,4.80
2022-12-29T15:46:32.264Z,3.22
2022-12-29T15:48:59.770Z,4.35
2022-12-29T15:51:32.523Z,6.18
2022-12-29T15:53:59.803Z,7.38
2022-12-29T15:56:30.958Z,4.20
2022-12-29T15:58:58.145Z,4.28
2022-12-29T16:01:32.729Z,4.00
2022-12-29T16:04:04.469Z,5.25
2022-12-29T16:06:40.365Z,5.03
2022-12-29T16:09:36.285Z,11.00
2022-12-29T16:12:35.179Z,5.15
2022-12-29T16:15:13.802Z,3.05
2022-12-29T16:17:54.277Z,6.03
2022-12-29T16:20:41.254Z,5.35
2022-12-29T16:23:22.611Z,4.03
2022-12-29T16:25:49.812Z,3.15
2022-12-29T16:28:37.393Z,4.22
2022-12-29T16:31:19.587Z,6.50
2022-12-29T16:33:52.043Z,5.53
2022-12-29T16:36:56.933Z,3.80
2022-12-29T16:39:35.813Z,6.18
2022-12-29T16:42:36.259Z,5.93
2022-12-29T16:45:25.365Z,6.13
2022-12-29T16:48:07.649Z,7.78
2022-12-29T16:50:37.960Z,6.20
2022-12-29T16:53:06.926Z,6.22
2022-12-29T16:55:34.139Z,7.20
2022-12-29T16:58:01.585Z,7.28
2022-12-29T17:00:35.746Z,7.13
2022-12-29T17:03:04.530Z,2.67
2022-12-29T17:05:31.617Z,4.50
2022-12-29T17:08:02.007Z,7.20
2022-12-29T17:10:48.356Z,4.38
2022-12-29T17:13:15.489Z,4.28
2022-12-29T17:15:42.632Z,6.80
2022-12-29T17:18:14.143Z,5.03
2022-12-29T17:20:42.251Z,5.72
2022-12-29T17:23:21.153Z,6.25
2022-12-29T17:25:54.841Z,4.07
2022-12-29T17:28:28.771Z,3.60
2022-12-29T17:31:02.451Z,3.17
2022-12-29T17:33:39.089Z,3.60
2022-12-29T17:36:06.464Z,4.30
2022-12-29T17:38:37.681Z,4.18
2022-12-29T17:41:04.943Z,4.38
2022-12-29T17:43:36.685Z,4.68
2022-12-29T17:46:08.122Z,4.53
2022-12-29T17:48:35.602Z,5.55
2022-12-29T17:51:02.770Z,3.80
2022-12-29T17:53:31.327Z,4.10
2022-12-29T17:55:58.328Z,4.22
2022-12-29T17:58:29.042Z,4.70
2022-12-29T18:00:59.871Z,3.38
2022-12-29T18:03:34.656Z,8.77
2022-12-29T18:06:05.228Z,6.47
2022-12-29T18:08:34.868Z,7.20
2022-12-29T18:11:02.422Z,2.92
2022-12-29T18:13:43.993Z,6.00
2022-12-29T18:16:14.019Z,8.88
2022-12-29T18:18:41.394Z,7.25
2022-12-29T18:21:18.007Z,5.35
2022-12-29T18:23:45.626Z,6.90
2022-12-29T18:26:25.643Z,6.13
2022-12-29T18:28:56.382Z,3.65
2022-12-29T18:31:27.354Z,5.07
2022-12-29T18:33:57.327Z,7.38
2022-12-29T18:36:25.027Z,11.95
2022-12-29T18:38:54.696Z,6.70
2022-12-29T18:41:31.206Z,7.45
2022-12-29T18:43:59.754Z,6.82
2022-12-29T18:46:27.045Z,5.63
2022-12-29T18:48:54.666Z,6.93
2022-12-29T18:51:26.135Z,4.43
2022-12-29T18:53:54.474Z,4.70
2022-12-29T18:56:23.102Z,5.25
2022-12-29T18:58:51.696Z,5.88
2022-12-29T19:01:25.489Z,2.90
2022-12-29T19:03:52.803Z,4.82
2022-12-29T19:06:21.513Z,3.67
2022-12-29T19:08:48.793Z,3.13
2022-12-29T19:11:16.198Z,6.35
2022-12-29T19:13:43.182Z,6.30
2022-12-29T19:16:19.717Z,4.18
2022-12-29T19:18:58.271Z,6.63
2022-12-29T19:21:34.146Z,6.40
2022-12-29T19:24:01.099Z,6.03
2022-12-29T19:26:36.593Z,8.10
2022-12-29T19:29:06.461Z,12.60
2022-12-29T19:31:34.038Z,7.65
2022-12-29T19:34:03.222Z,2.83
2022-12-29T19:36:32.745Z,4.13
2022-12-29T19:39:00.213Z,3.72
2022-12-29T19:41:27.311Z,7.43
2022-12-29T19:43:54.569Z,4.72
2022-12-29T19:46:23.515Z,4.90
2022-12-29T19:48:51.806Z,5.82
2022-12-29T19:51:20.418Z,6.60
2022-12-29T19:53:48.059Z,4.95
2022-12-29T19:56:15.497Z,7.03
2022-12-29T19:58:47.259Z,8.77
2022-12-29T20:01:22.465Z,6.78
2022-12-29T20:03:50.507Z,4.18
2022-12-29T20:06:18.797Z,5.72
2022-12-29T20:08:45.869Z,5.07
2022-12-29T20:11:17.095Z,4.55
2022-12-29T20:13:50.599Z,4.10
2022-12-29T20:16:20.229Z,4.68
2022-12-29T20:18:48.732Z,5.53
2022-12-29T20:21:22.378Z,4.18
2022-12-29T20:23:51.874Z,3.53
2022-12-29T20:26:23.965Z,5.10
2022-12-29T20:28:52.436Z,3.60
2022-12-29T20:31:42.597Z,2.83
2022-12-29T20:34:09.887Z,5.22
2022-12-29T20:36:41.138Z,3.78
2022-12-29T20:39:12.810Z,4.45
2022-12-29T20:41:39.801Z,3.92
2022-12-29T20:44:07.090Z,5.78
2022-12-29T20:46:41.198Z,4.25
2022-12-29T20:49:10.709Z,5.10
2022-12-29T20:52:04.409Z,4.72
2022-12-29T20:54:25.056Z,3.80
2022-12-29T20:56:52.579Z,4.32
2022-12-29T20:59:28.461Z,3.72
2022-12-29T21:01:57.067Z,4.15
2022-12-29T21:04:24.262Z,4.53
2022-12-29T21:06:51.248Z,3.75
2022-12-29T21:09:18.307Z,4.45
2022-12-29T21:11:46.572Z,3.28
2022-12-29T21:14:13.853Z,5.10
2022-12-29T21:16:40.961Z,6.30
2022-12-29T21:19:08.072Z,5.13
2022-12-29T21:21:35.235Z,4.78
2022-12-29T21:24:05.872Z,5.32
2022-12-29T21:26:33.991Z,5.03
2022-12-29T21:29:03.412Z,5.63
2022-12-29T21:31:37.361Z,5.75
2022-12-29T21:34:05.823Z,5.97
2022-12-29T21:36:33.579Z,3.78
2022-12-29T21:39:03.399Z,6.80
2022-12-29T21:41:30.972Z,3.85
2022-12-29T21:44:17.466Z,3.97
2022-12-29T21:46:49.660Z,6.65
2022-12-29T21:49:16.765Z,4.80
2022-12-29T21:51:50.129Z,4.45
2022-12-29T21:54:47.874Z,4.70
2022-12-29T21:57:38.577Z,7.05
2022-12-29T22:00:31.814Z,6.15
2022-12-29T22:03:23.126Z,3.80
2022-12-29T22:06:10.775Z,2.70
2022-12-29T22:08:56.751Z,4.43
2022-12-29T22:11:42.598Z,9.77
2022-12-29T22:14:09.852Z,6.28
2022-12-29T22:16:36.968Z,5.70
2022-12-29T22:19:04.213Z,6.30
2022-12-29T22:21:31.713Z,5.65
2022-12-29T22:23:58.790Z,6.18
2022-12-29T22:26:25.773Z,6.13
2022-12-29T22:28:52.989Z,5.30
2022-12-29T22:31:32.860Z,4.18
2022-12-29T22:34:05.407Z,5.70
2022-12-29T22:36:32.798Z,4.72
2022-12-29T22:39:00.115Z,6.45
2022-12-29T22:41:27.167Z,5.57
2022-12-29T22:43:55.049Z,4.50
2022-12-29T22:46:22.419Z,6.85
2022-12-29T22:48:49.731Z,4.97
2022-12-29T22:51:16.685Z,6.53
2022-12-29T22:53:45.573Z,7.82
2022-12-29T22:56:14.021Z,7.57
2022-12-29T22:58:47.448Z,5.95
2022-12-29T23:01:17.403Z,6.78
2022-12-29T23:03:44.969Z,7.28
2022-12-29T23:06:16.263Z,7.97
2022-12-29T23:08:44.202Z,5.20
2022-12-29T23:11:13.024Z,4.35
2022-12-29T23:13:41.224Z,4.90
2022-12-29T23:16:08.729Z,5.13
2022-12-29T23:18:36.039Z,5.70
2022-12-29T23:21:03.099Z,3.58
2022-12-29T23:23:49.746Z,4.40
2022-12-29T23:26:19.070Z,8.32
2022-12-29T23:28:46.215Z,5.47
2022-12-29T23:31:14.203Z,5.93
2022-12-29T23:33:41.769Z,4.05
2022-12-29T23:36:09.063Z,5.18
2022-12-29T23:38:36.123Z,4.95
2022-12-29T23:41:03.084Z,6.28
2022-12-29T23:43:30.143Z,5.43
2022-12-29T23:45:57.164Z,6.80
2022-12-29T23:48:24.453Z,5.03
2022-12-29T23:50:51.542Z,4.72
2022-12-29T23:53:18.535Z,5.47
2022-12-29T23:55:53.547Z,6.65
2022-12-29T23:58:21.061Z,4.32
